Ruby Princess — ZCDY2 — position and weather

sailwx.info

Track history (hours):
 
Tides and Currents Weather Stations Pressure Air Temp Water Temp Dewpoint Dewpoint Depression Visibility Wind Speed Wind Dir Waves Ship Positions

Ruby Princess

Last reported at 2017-Sep-18 00:56 UTC. Time now 2017-Sep-20 00:34 UTC.
Position N 54°18' W 131°07'.

Length 289 m; draft 8.6 m.

Type: Ship. MMSI: 310567000.

Date/timePositionNaut miles runAvg speedWind from/ knotsBaromVisibWave heightAir tempDewpointWater temp
2017-Sep-18 00:56N 54°18' W 131°07'1020.4
2017-Sep-18 00:27N 54°09' W 131°01'920.7
2017-Sep-18 00:00N 53°60' W 130°59'1120.1
2017-Sep-17 23:27N 53°49' W 130°56'17821.5
2017-Sep-17 15:11N 51°01' W 129°20'3121.6
2017-Sep-17 13:45N 50°35' W 128°53'10222.6
2017-Sep-17 09:16N 49°28' W 126°55'623.0
2017-Sep-17 09:00N 49°24' W 126°48'1223.0
2017-Sep-17 08:31N 49°17' W 126°34'1123.0
2017-Sep-17 08:00N 49°10' W 126°20'1122.7
2017-Sep-17 07:30N 49°03' W 126°07'1122.5
2017-Sep-17 07:01N 48°56' W 125°53'1122.4
2017-Sep-17 06:30N 48°49' W 125°39'1122.9
2017-Sep-17 06:01N 48°44' W 125°24'1223.1
2017-Sep-17 05:31N 48°39' W 125°08'1223.0
2017-Sep-17 05:01N 48°34' W 124°53'1223.2
2017-Sep-17 04:31N 48°29' W 124°37'1122.8
2017-Sep-17 04:00N 48°25' W 124°21'1123.0
2017-Sep-17 03:31N 48°21' W 124°05'1223.1
2017-Sep-17 03:00N 48°17' W 123°48'1224.1
2017-Sep-17 02:30N 48°15' W 123°30'917.3
2017-Sep-17 02:00N 48°09' W 123°21'1122.0
2017-Sep-17 01:30N 48°13' W 123°05'1223.7
2017-Sep-17 01:00N 48°10' W 122°48'1122.2
2017-Sep-17 00:30N 48°02' W 122°38'1123.1
2017-Sep-17 00:00N 47°52' W 122°28'1121.5
2017-Sep-16 23:30N 47°42' W 122°27'5 9.6
2017-Sep-16 23:00N 47°38' W 122°23'0 0.3
2017-Sep-16 22:29N 47°38' W 122°23'0 0.0
2017-Sep-16 21:58N 47°38' W 122°23'0 0.0
2017-Sep-16 21:28N 47°38' W 122°23'0 0.0
2017-Sep-16 21:00N 47°38' W 122°23'0 0.0
2017-Sep-16 20:30N 47°38' W 122°23'0 0.0
2017-Sep-16 20:00N 47°38' W 122°23'0 0.0
2017-Sep-16 19:30N 47°38' W 122°23'0 0.0
2017-Sep-16 19:00N 47°38' W 122°23'0 0.0
2017-Sep-16 18:29N 47°38' W 122°23'0 0.0
2017-Sep-16 17:59N 47°38' W 122°23'0 0.0
2017-Sep-16 17:29N 47°38' W 122°23'0 0.0
2017-Sep-16 16:59N 47°38' W 122°23'0 0.0
2017-Sep-16 16:29N 47°38' W 122°23'0 0.0
2017-Sep-16 15:59N 47°38' W 122°23'0 0.0
2017-Sep-16 15:29N 47°38' W 122°23'0 0.0
2017-Sep-16 14:58N 47°38' W 122°23'0 0.0
2017-Sep-16 14:28N 47°38' W 122°23'0 0.0
2017-Sep-16 14:00N 47°38' W 122°23'0 0.0
2017-Sep-16 13:30N 47°38' W 122°23'0 0.0
2017-Sep-16 13:00N 47°38' W 122°23'1 2.7
2017-Sep-16 12:30N 47°37' W 122°25'510.3
2017-Sep-16 12:00N 47°42' W 122°28'714.3
2017-Sep-16 11:31N 47°49' W 122°28'815.1
2017-Sep-16 11:01N 47°56' W 122°32'714.3
2017-Sep-16 10:30N 48°02' W 122°38'714.1
2017-Sep-16 10:00N 48°08' W 122°43'815.9
2017-Sep-16 09:31N 48°11' W 122°53'917.8
2017-Sep-16 09:01N 48°12' W 123°07'918.7
2017-Sep-16 08:31N 48°10' W 123°21'713.6
2017-Sep-16 08:00N 48°13' W 123°30'917.3
2017-Sep-16 07:31N 48°22' W 123°26'4 7.4
2017-Sep-16 07:00N 48°25' W 123°23'0 0.1
2017-Sep-16 06:29N 48°25' W 123°23'0 0.0
2017-Sep-16 05:59N 48°25' W 123°23'0 0.0
2017-Sep-16 05:29N 48°25' W 123°23'0 0.0
2017-Sep-16 04:59N 48°25' W 123°23'0 0.0
2017-Sep-16 04:28N 48°25' W 123°23'0 0.0
2017-Sep-16 03:58N 48°25' W 123°23'0 0.0
2017-Sep-16 03:28N 48°25' W 123°23'0 0.0
2017-Sep-16 02:58N 48°25' W 123°23'0 0.0
2017-Sep-16 02:30N 48°25' W 123°23'0 0.0
2017-Sep-16 02:00N 48°25' W 123°23'0 0.6
2017-Sep-16 01:30N 48°25' W 123°24'5 9.5
2017-Sep-16 01:01N 48°20' W 123°24'917.4
2017-Sep-16 00:30N 48°13' W 123°33'1019.5
2017-Sep-16 00:00N 48°14' W 123°47'1019.8
2017-Sep-15 23:30N 48°16' W 124°02'1020.5
2017-Sep-15 23:00N 48°20' W 124°16'1019.9
2017-Sep-15 22:30N 48°24' W 124°30'917.4
2017-Sep-15 22:00N 48°28' W 124°41'917.2
2017-Sep-15 21:30N 48°29' W 124°54'918.8
2017-Sep-15 21:00N 48°29' W 125°08'918.6
2017-Sep-15 20:31N 48°33' W 125°21'1020.6
2017-Sep-15 20:01N 48°38' W 125°34'1020.6
2017-Sep-15 19:30N 48°44' W 125°47'1020.3
2017-Sep-15 19:01N 48°51' W 125°59'1020.5
2017-Sep-15 18:30N 48°57' W 126°12'1020.9
2017-Sep-15 18:00N 49°02' W 126°25'1020.7
2017-Sep-15 17:31N 49°08' W 126°38'1020.6
2017-Sep-15 17:00N 49°15' W 126°50'1020.2
2017-Sep-15 16:31N 49°22' W 127°01'1019.6
2017-Sep-15 16:01N 49°29' W 127°11'1019.7
2017-Sep-15 15:30N 49°36' W 127°22'3522.4
2017-Sep-15 13:58N 50°01' W 127°59'1323.2
2017-Sep-15 13:26N 50°10' W 128°13'1023.0
2017-Sep-15 13:00N 50°17' W 128°24'1223.1
2017-Sep-15 12:30N 50°25' W 128°36'1223.5
2017-Sep-15 11:59N 50°34' W 128°50'1123.1
2017-Sep-15 11:30N 50°42' W 129°02'1121.9
2017-Sep-15 11:00N 50°50' W 129°14'1121.3
2017-Sep-15 10:30N 50°60' W 129°19'1121.9
2017-Sep-15 10:00N 51°10' W 129°26'1122.7
2017-Sep-15 09:30N 51°20' W 129°33'1122.2
2017-Sep-15 09:00N 51°31' W 129°39'1122.4
2017-Sep-15 08:30N 51°41' W 129°45'1122.5
2017-Sep-15 08:00N 51°52' W 129°51'1122.1
2017-Sep-15 07:30N 52°02' W 129°58'1122.5
2017-Sep-15 07:00N 52°13' W 130°04'1122.2
2017-Sep-15 06:31N 52°23' W 130°11'1122.1
2017-Sep-15 06:00N 52°33' W 130°17'1122.3
2017-Sep-15 05:30N 52°44' W 130°23'1122.5
2017-Sep-15 05:00N 52°55' W 130°30'141299.5
2017-Sep-15 05:00N 52°42' W 130°18'2945.9 340 / 281024.8 5.4 12.5 9.613.0
2017-Sep-15 04:21N 53°08' W 130°38'1122.7
2017-Sep-15 03:52N 53°19' W 130°45'922.9
2017-Sep-15 03:30N 53°27' W 130°50'1223.1
2017-Sep-15 03:00N 53°38' W 130°53'1122.8
2017-Sep-15 02:30N 53°49' W 130°56'1122.9
2017-Sep-15 02:00N 54°00' W 130°59'1223.5
2017-Sep-15 01:31N 54°12' W 131°02'1223.5
2017-Sep-15 01:00N 54°23' W 131°09'1322.8
2017-Sep-15 00:27N 54°34' W 131°20'1022.2
2017-Sep-14 23:59N 54°42' W 131°31'177 8.4
2017-Sep-14 03:00N 57°06' W 134°36'7123.3 020 / 81024.5 5.4 12.5 7.410.0
2017-Sep-13 23:56N 58°12' W 135°26'920.9
2017-Sep-13 23:29N 58°17' W 135°42'918.6
2017-Sep-13 23:00N 58°21' W 135°57'713.9
2017-Sep-13 22:30N 58°27' W 136°01'917.6
2017-Sep-13 22:00N 58°36' W 136°04'918.8
2017-Sep-13 21:30N 58°43' W 136°15'1 0.2
2017-Sep-13 15:31N 58°43' W 136°14'118.1
2017-Sep-13 15:29N 58°42' W 136°13'917.9
2017-Sep-13 15:00N 58°35' W 136°04'1138.0
2017-Sep-13 15:00N 58°36' W 136°06'1019.9 330 / 101025.8 5.4 6.8 6.1 8.0
2017-Sep-13 14:30N 58°27' W 135°60'5 9.7
2017-Sep-13 14:00N 58°22' W 135°57'611.5
2017-Sep-13 13:30N 58°19' W 135°49'713.1
2017-Sep-13 13:00N 58°16' W 135°37'  
2017-Sep-10 16:47N 51°23' W 129°34'821.2
2017-Sep-10 16:25N 51°16' W 129°29'1021.4
2017-Sep-10 15:57N 51°07' W 129°24'13021.6
2017-Sep-10 09:56N 49°32' W 127°02'1022.5
2017-Sep-10 09:30N 49°26' W 126°51'1122.9
2017-Sep-10 09:00N 49°19' W 126°38'1223.1
2017-Sep-10 08:30N 49°12' W 126°24'1122.9
2017-Sep-10 08:00N 49°05' W 126°10'1122.7
2017-Sep-10 07:31N 48°57' W 125°57'1122.7
2017-Sep-10 07:00N 48°50' W 125°43'1122.6
2017-Sep-10 06:31N 48°45' W 125°28'1223.6
2017-Sep-10 06:00N 48°40' W 125°12'1224.2
2017-Sep-10 05:30N 48°35' W 124°55'1224.2
2017-Sep-10 05:01N 48°30' W 124°39'1223.8
2017-Sep-10 04:31N 48°25' W 124°22'1223.0
2017-Sep-10 04:00N 48°21' W 124°06'1122.9
2017-Sep-10 03:30N 48°17' W 123°50'1122.7
2017-Sep-10 03:00N 48°15' W 123°33'918.4
2017-Sep-10 02:30N 48°09' W 123°22'917.3
2017-Sep-10 01:59N 48°12' W 123°10'1121.7
2017-Sep-10 01:29N 48°12' W 122°54'1118.4
2017-Sep-10 00:53N 48°06' W 122°39'720.0
2017-Sep-10 00:31N 47°59' W 122°35'1121.3
2017-Sep-10 00:01N 47°50' W 122°27'1020.9
2017-Sep-09 23:31N 47°40' W 122°27'4 7.0
2017-Sep-09 23:00N 47°38' W 122°23'0 0.0
2017-Sep-09 22:30N 47°38' W 122°23'0 0.0
2017-Sep-09 22:00N 47°38' W 122°23'0 0.0
2017-Sep-09 21:29N 47°38' W 122°23'0 0.0
2017-Sep-09 20:59N 47°38' W 122°23'0 0.0
2017-Sep-09 20:29N 47°38' W 122°23'0 0.0
2017-Sep-09 19:58N 47°38' W 122°23'0 0.0
2017-Sep-09 19:29N 47°38' W 122°23'0 0.0
2017-Sep-09 18:58N 47°38' W 122°23'0 0.0
2017-Sep-09 18:31N 47°38' W 122°23'0 0.0
2017-Sep-09 17:57N 47°38' W 122°23'0 0.0
2017-Sep-09 17:30N 47°38' W 122°23'0 0.0
2017-Sep-09 17:00N 47°38' W 122°23'0 0.0
2017-Sep-09 16:30N 47°38' W 122°23'0 0.0
2017-Sep-09 16:00N 47°38' W 122°23'0 0.0
2017-Sep-09 15:30N 47°38' W 122°23'0 0.0
2017-Sep-09 14:59N 47°38' W 122°23'0 0.0
2017-Sep-09 14:29N 47°38' W 122°23'0 0.0
2017-Sep-09 13:59N 47°38' W 122°23'0 0.0
2017-Sep-09 13:29N 47°38' W 122°23'0 0.0
2017-Sep-09 12:58N 47°38' W 122°23'1 2.1
2017-Sep-09 12:30N 47°37' W 122°24'611.3
2017-Sep-09 12:00N 47°42' W 122°28'714.4
2017-Sep-09 11:30N 47°49' W 122°28'713.7
2017-Sep-09 11:00N 47°56' W 122°31'714.5
2017-Sep-09 10:30N 48°02' W 122°38'714.8
2017-Sep-09 10:00N 48°08' W 122°43'917.1
2017-Sep-09 09:30N 48°11' W 122°55'917.3
2017-Sep-09 08:59N 48°12' W 123°08'817.2
2017-Sep-09 08:30N 48°10' W 123°20'713.4
2017-Sep-09 08:01N 48°12' W 123°30'816.5
2017-Sep-09 07:30N 48°20' W 123°26'510.2
2017-Sep-09 07:00N 48°25' W 123°24'0 0.2
2017-Sep-09 06:30N 48°25' W 123°24'0 0.0
2017-Sep-09 05:59N 48°25' W 123°24'0 0.0
2017-Sep-09 05:29N 48°25' W 123°24'0 0.0
2017-Sep-09 04:59N 48°25' W 123°24'0 0.0
2017-Sep-09 04:29N 48°25' W 123°24'0 0.0
2017-Sep-09 03:59N 48°25' W 123°24'0 0.0
2017-Sep-09 03:28N 48°25' W 123°24'0 0.0
2017-Sep-09 02:58N 48°25' W 123°24'0 0.0
2017-Sep-09 02:25N 48°25' W 123°24'0 0.0
2017-Sep-09 01:58N 48°25' W 123°24'0 0.0
2017-Sep-09 01:31N 48°25' W 123°24'2 3.1
2017-Sep-09 01:00N 48°23' W 123°24'612.9
2017-Sep-09 00:31N 48°17' W 123°26'713.6
2017-Sep-09 00:01N 48°14' W 123°35'1019.5
2017-Sep-08 23:30N 48°14' W 123°49'1019.4
2017-Sep-08 23:01N 48°16' W 124°03'1619.5
2017-Sep-08 22:12N 48°23' W 124°25'518.8
2017-Sep-08 21:57N 48°25' W 124°31'1118.8
2017-Sep-08 21:21N 48°29' W 124°47'719.0
2017-Sep-08 21:01N 48°29' W 124°57'918.8
2017-Sep-08 20:30N 48°29' W 125°11'1019.5
2017-Sep-08 20:01N 48°34' W 125°23'1121.6
2017-Sep-08 19:31N 48°41' W 125°37'1122.0
2017-Sep-08 19:01N 48°47' W 125°50'1122.2
2017-Sep-08 18:31N 48°53' W 126°04'1122.2
2017-Sep-08 18:01N 48°59' W 126°18'1121.8
2017-Sep-08 17:31N 49°06' W 126°32'1122.1
2017-Sep-08 17:00N 49°12' W 126°46'1122.3
2017-Sep-08 16:30N 49°20' W 126°58'1122.8
2017-Sep-08 16:00N 49°28' W 127°10'1222.9
2017-Sep-08 15:30N 49°37' W 127°22'2416.0
2017-Sep-08 14:00N 49°54' W 127°48'5727.8 330 / 251015.810.8 13.512.213.0
2017-Sep-08 11:58N 50°34' W 128°50'1222.7
2017-Sep-08 11:26N 50°43' W 129°04'1022.6
2017-Sep-08 11:00N 50°50' W 129°13'1122.7
2017-Sep-08 10:30N 51°01' W 129°20'1122.2
2017-Sep-08 10:00N 51°11' W 129°26'1122.1
2017-Sep-08 09:31N 51°21' W 129°33'1223.3
2017-Sep-08 09:00N 51°32' W 129°39'4821.7
2017-Sep-08 06:47N 52°17' W 130°07'621.6
2017-Sep-08 06:30N 52°23' W 130°10'1121.6
2017-Sep-08 06:00N 52°33' W 130°17'1121.9
2017-Sep-08 05:30N 52°43' W 130°23'4919.5
2017-Sep-08 03:00N 53°30' W 130°48'   040 / 21016.110.8 14.011.214.0
Track history (hours):
 
Tides and Currents Weather Stations Pressure Air Temp Water Temp Dewpoint Dewpoint Depression Visibility Wind Speed Wind Dir Waves Ship Positions

Ruby Princess

Last reported at 2017-Sep-18 00:56 UTC. Time now 2017-Sep-20 00:34 UTC.
Position N 54°18' W 131°07'.

Length 289 m; draft 8.6 m.

Type: Ship. MMSI: 310567000.

Date/timePositionNaut miles runAvg speedWind from/ knotsBaromVisibWave heightAir tempDewpointWater temp
2017-Sep-18 00:56N 54°18' W 131°07'1020.4
2017-Sep-18 00:27N 54°09' W 131°01'920.7
2017-Sep-18 00:00N 53°60' W 130°59'1120.1
2017-Sep-17 23:27N 53°49' W 130°56'17821.5
2017-Sep-17 15:11N 51°01' W 129°20'3121.6
2017-Sep-17 13:45N 50°35' W 128°53'10222.6
2017-Sep-17 09:16N 49°28' W 126°55'623.0
2017-Sep-17 09:00N 49°24' W 126°48'1223.0
2017-Sep-17 08:31N 49°17' W 126°34'1123.0
2017-Sep-17 08:00N 49°10' W 126°20'1122.7
2017-Sep-17 07:30N 49°03' W 126°07'1122.5
2017-Sep-17 07:01N 48°56' W 125°53'1122.4
2017-Sep-17 06:30N 48°49' W 125°39'1122.9
2017-Sep-17 06:01N 48°44' W 125°24'1223.1
2017-Sep-17 05:31N 48°39' W 125°08'1223.0
2017-Sep-17 05:01N 48°34' W 124°53'1223.2
2017-Sep-17 04:31N 48°29' W 124°37'1122.8
2017-Sep-17 04:00N 48°25' W 124°21'1123.0
2017-Sep-17 03:31N 48°21' W 124°05'1223.1
2017-Sep-17 03:00N 48°17' W 123°48'1224.1
2017-Sep-17 02:30N 48°15' W 123°30'917.3
2017-Sep-17 02:00N 48°09' W 123°21'1122.0
2017-Sep-17 01:30N 48°13' W 123°05'1223.7
2017-Sep-17 01:00N 48°10' W 122°48'1122.2
2017-Sep-17 00:30N 48°02' W 122°38'1123.1
2017-Sep-17 00:00N 47°52' W 122°28'1121.5
2017-Sep-16 23:30N 47°42' W 122°27'5 9.6
2017-Sep-16 23:00N 47°38' W 122°23'0 0.3
2017-Sep-16 22:29N 47°38' W 122°23'0 0.0
2017-Sep-16 21:58N 47°38' W 122°23'0 0.0
2017-Sep-16 21:28N 47°38' W 122°23'0 0.0
2017-Sep-16 21:00N 47°38' W 122°23'0 0.0
2017-Sep-16 20:30N 47°38' W 122°23'0 0.0
2017-Sep-16 20:00N 47°38' W 122°23'0 0.0
2017-Sep-16 19:30N 47°38' W 122°23'0 0.0
2017-Sep-16 19:00N 47°38' W 122°23'0 0.0
2017-Sep-16 18:29N 47°38' W 122°23'0 0.0
2017-Sep-16 17:59N 47°38' W 122°23'0 0.0
2017-Sep-16 17:29N 47°38' W 122°23'0 0.0
2017-Sep-16 16:59N 47°38' W 122°23'0 0.0
2017-Sep-16 16:29N 47°38' W 122°23'0 0.0
2017-Sep-16 15:59N 47°38' W 122°23'0 0.0
2017-Sep-16 15:29N 47°38' W 122°23'0 0.0
2017-Sep-16 14:58N 47°38' W 122°23'0 0.0
2017-Sep-16 14:28N 47°38' W 122°23'0 0.0
2017-Sep-16 14:00N 47°38' W 122°23'0 0.0
2017-Sep-16 13:30N 47°38' W 122°23'0 0.0
2017-Sep-16 13:00N 47°38' W 122°23'1 2.7
2017-Sep-16 12:30N 47°37' W 122°25'510.3
2017-Sep-16 12:00N 47°42' W 122°28'714.3
2017-Sep-16 11:31N 47°49' W 122°28'815.1
2017-Sep-16 11:01N 47°56' W 122°32'714.3
2017-Sep-16 10:30N 48°02' W 122°38'714.1
2017-Sep-16 10:00N 48°08' W 122°43'815.9
2017-Sep-16 09:31N 48°11' W 122°53'917.8
2017-Sep-16 09:01N 48°12' W 123°07'918.7
2017-Sep-16 08:31N 48°10' W 123°21'713.6
2017-Sep-16 08:00N 48°13' W 123°30'917.3
2017-Sep-16 07:31N 48°22' W 123°26'4 7.4
2017-Sep-16 07:00N 48°25' W 123°23'0 0.1
2017-Sep-16 06:29N 48°25' W 123°23'0 0.0
2017-Sep-16 05:59N 48°25' W 123°23'0 0.0
2017-Sep-16 05:29N 48°25' W 123°23'0 0.0
2017-Sep-16 04:59N 48°25' W 123°23'0 0.0
2017-Sep-16 04:28N 48°25' W 123°23'0 0.0
2017-Sep-16 03:58N 48°25' W 123°23'0 0.0
2017-Sep-16 03:28N 48°25' W 123°23'0 0.0
2017-Sep-16 02:58N 48°25' W 123°23'0 0.0
2017-Sep-16 02:30N 48°25' W 123°23'0 0.0
2017-Sep-16 02:00N 48°25' W 123°23'0 0.6
2017-Sep-16 01:30N 48°25' W 123°24'5 9.5
2017-Sep-16 01:01N 48°20' W 123°24'917.4
2017-Sep-16 00:30N 48°13' W 123°33'1019.5
2017-Sep-16 00:00N 48°14' W 123°47'1019.8
2017-Sep-15 23:30N 48°16' W 124°02'1020.5
2017-Sep-15 23:00N 48°20' W 124°16'1019.9
2017-Sep-15 22:30N 48°24' W 124°30'917.4
2017-Sep-15 22:00N 48°28' W 124°41'917.2
2017-Sep-15 21:30N 48°29' W 124°54'918.8
2017-Sep-15 21:00N 48°29' W 125°08'918.6
2017-Sep-15 20:31N 48°33' W 125°21'1020.6
2017-Sep-15 20:01N 48°38' W 125°34'1020.6
2017-Sep-15 19:30N 48°44' W 125°47'1020.3
2017-Sep-15 19:01N 48°51' W 125°59'1020.5
2017-Sep-15 18:30N 48°57' W 126°12'1020.9
2017-Sep-15 18:00N 49°02' W 126°25'1020.7
2017-Sep-15 17:31N 49°08' W 126°38'1020.6
2017-Sep-15 17:00N 49°15' W 126°50'1020.2
2017-Sep-15 16:31N 49°22' W 127°01'1019.6
2017-Sep-15 16:01N 49°29' W 127°11'1019.7
2017-Sep-15 15:30N 49°36' W 127°22'3522.4
2017-Sep-15 13:58N 50°01' W 127°59'1323.2
2017-Sep-15 13:26N 50°10' W 128°13'1023.0
2017-Sep-15 13:00N 50°17' W 128°24'1223.1
2017-Sep-15 12:30N 50°25' W 128°36'1223.5
2017-Sep-15 11:59N 50°34' W 128°50'1123.1
2017-Sep-15 11:30N 50°42' W 129°02'1121.9
2017-Sep-15 11:00N 50°50' W 129°14'1121.3
2017-Sep-15 10:30N 50°60' W 129°19'1121.9
2017-Sep-15 10:00N 51°10' W 129°26'1122.7
2017-Sep-15 09:30N 51°20' W 129°33'1122.2
2017-Sep-15 09:00N 51°31' W 129°39'1122.4
2017-Sep-15 08:30N 51°41' W 129°45'1122.5
2017-Sep-15 08:00N 51°52' W 129°51'1122.1
2017-Sep-15 07:30N 52°02' W 129°58'1122.5
2017-Sep-15 07:00N 52°13' W 130°04'1122.2
2017-Sep-15 06:31N 52°23' W 130°11'1122.1
2017-Sep-15 06:00N 52°33' W 130°17'1122.3
2017-Sep-15 05:30N 52°44' W 130°23'1122.5
2017-Sep-15 05:00N 52°55' W 130°30'141299.5
2017-Sep-15 05:00N 52°42' W 130°18'2945.9 340 / 281024.8 5.4 12.5 9.613.0
2017-Sep-15 04:21N 53°08' W 130°38'1122.7
2017-Sep-15 03:52N 53°19' W 130°45'922.9
2017-Sep-15 03:30N 53°27' W 130°50'1223.1
2017-Sep-15 03:00N 53°38' W 130°53'1122.8
2017-Sep-15 02:30N 53°49' W 130°56'1122.9
2017-Sep-15 02:00N 54°00' W 130°59'1223.5
2017-Sep-15 01:31N 54°12' W 131°02'1223.5
2017-Sep-15 01:00N 54°23' W 131°09'1322.8
2017-Sep-15 00:27N 54°34' W 131°20'1022.2
2017-Sep-14 23:59N 54°42' W 131°31'177 8.4
2017-Sep-14 03:00N 57°06' W 134°36'7123.3 020 / 81024.5 5.4 12.5 7.410.0
2017-Sep-13 23:56N 58°12' W 135°26'920.9
2017-Sep-13 23:29N 58°17' W 135°42'918.6
2017-Sep-13 23:00N 58°21' W 135°57'713.9
2017-Sep-13 22:30N 58°27' W 136°01'917.6
2017-Sep-13 22:00N 58°36' W 136°04'918.8
2017-Sep-13 21:30N 58°43' W 136°15'1 0.2
2017-Sep-13 15:31N 58°43' W 136°14'118.1
2017-Sep-13 15:29N 58°42' W 136°13'917.9
2017-Sep-13 15:00N 58°35' W 136°04'1138.0
2017-Sep-13 15:00N 58°36' W 136°06'1019.9 330 / 101025.8 5.4 6.8 6.1 8.0
2017-Sep-13 14:30N 58°27' W 135°60'5 9.7
2017-Sep-13 14:00N 58°22' W 135°57'611.5
2017-Sep-13 13:30N 58°19' W 135°49'713.1
2017-Sep-13 13:00N 58°16' W 135°37'  
2017-Sep-10 16:47N 51°23' W 129°34'821.2
2017-Sep-10 16:25N 51°16' W 129°29'1021.4
2017-Sep-10 15:57N 51°07' W 129°24'13021.6
2017-Sep-10 09:56N 49°32' W 127°02'1022.5
2017-Sep-10 09:30N 49°26' W 126°51'1122.9
2017-Sep-10 09:00N 49°19' W 126°38'1223.1
2017-Sep-10 08:30N 49°12' W 126°24'1122.9
2017-Sep-10 08:00N 49°05' W 126°10'1122.7
2017-Sep-10 07:31N 48°57' W 125°57'1122.7
2017-Sep-10 07:00N 48°50' W 125°43'1122.6
2017-Sep-10 06:31N 48°45' W 125°28'1223.6
2017-Sep-10 06:00N 48°40' W 125°12'1224.2
2017-Sep-10 05:30N 48°35' W 124°55'1224.2
2017-Sep-10 05:01N 48°30' W 124°39'1223.8
2017-Sep-10 04:31N 48°25' W 124°22'1223.0
2017-Sep-10 04:00N 48°21' W 124°06'1122.9
2017-Sep-10 03:30N 48°17' W 123°50'1122.7
2017-Sep-10 03:00N 48°15' W 123°33'918.4
2017-Sep-10 02:30N 48°09' W 123°22'917.3
2017-Sep-10 01:59N 48°12' W 123°10'1121.7
2017-Sep-10 01:29N 48°12' W 122°54'1118.4
2017-Sep-10 00:53N 48°06' W 122°39'720.0
2017-Sep-10 00:31N 47°59' W 122°35'1121.3
2017-Sep-10 00:01N 47°50' W 122°27'1020.9
2017-Sep-09 23:31N 47°40' W 122°27'4 7.0
2017-Sep-09 23:00N 47°38' W 122°23'0 0.0
2017-Sep-09 22:30N 47°38' W 122°23'0 0.0
2017-Sep-09 22:00N 47°38' W 122°23'0 0.0
2017-Sep-09 21:29N 47°38' W 122°23'0 0.0
2017-Sep-09 20:59N 47°38' W 122°23'0 0.0
2017-Sep-09 20:29N 47°38' W 122°23'0 0.0
2017-Sep-09 19:58N 47°38' W 122°23'0 0.0
2017-Sep-09 19:29N 47°38' W 122°23'0 0.0
2017-Sep-09 18:58N 47°38' W 122°23'0 0.0
2017-Sep-09 18:31N 47°38' W 122°23'0 0.0
2017-Sep-09 17:57N 47°38' W 122°23'0 0.0
2017-Sep-09 17:30N 47°38' W 122°23'0 0.0
2017-Sep-09 17:00N 47°38' W 122°23'0 0.0
2017-Sep-09 16:30N 47°38' W 122°23'0 0.0
2017-Sep-09 16:00N 47°38' W 122°23'0 0.0
2017-Sep-09 15:30N 47°38' W 122°23'0 0.0
2017-Sep-09 14:59N 47°38' W 122°23'0 0.0
2017-Sep-09 14:29N 47°38' W 122°23'0 0.0
2017-Sep-09 13:59N 47°38' W 122°23'0 0.0
2017-Sep-09 13:29N 47°38' W 122°23'0 0.0
2017-Sep-09 12:58N 47°38' W 122°23'1 2.1
2017-Sep-09 12:30N 47°37' W 122°24'611.3
2017-Sep-09 12:00N 47°42' W 122°28'714.4
2017-Sep-09 11:30N 47°49' W 122°28'713.7
2017-Sep-09 11:00N 47°56' W 122°31'714.5
2017-Sep-09 10:30N 48°02' W 122°38'714.8
2017-Sep-09 10:00N 48°08' W 122°43'917.1
2017-Sep-09 09:30N 48°11' W 122°55'917.3
2017-Sep-09 08:59N 48°12' W 123°08'817.2
2017-Sep-09 08:30N 48°10' W 123°20'713.4
2017-Sep-09 08:01N 48°12' W 123°30'816.5
2017-Sep-09 07:30N 48°20' W 123°26'510.2
2017-Sep-09 07:00N 48°25' W 123°24'0 0.2
2017-Sep-09 06:30N 48°25' W 123°24'0 0.0
2017-Sep-09 05:59N 48°25' W 123°24'0 0.0
2017-Sep-09 05:29N 48°25' W 123°24'0 0.0
2017-Sep-09 04:59N 48°25' W 123°24'0 0.0
2017-Sep-09 04:29N 48°25' W 123°24'0 0.0
2017-Sep-09 03:59N 48°25' W 123°24'0 0.0
2017-Sep-09 03:28N 48°25' W 123°24'0 0.0
2017-Sep-09 02:58N 48°25' W 123°24'0 0.0
2017-Sep-09 02:25N 48°25' W 123°24'0 0.0
2017-Sep-09 01:58N 48°25' W 123°24'0 0.0
2017-Sep-09 01:31N 48°25' W 123°24'2 3.1
2017-Sep-09 01:00N 48°23' W 123°24'612.9
2017-Sep-09 00:31N 48°17' W 123°26'713.6
2017-Sep-09 00:01N 48°14' W 123°35'1019.5
2017-Sep-08 23:30N 48°14' W 123°49'1019.4
2017-Sep-08 23:01N 48°16' W 124°03'1619.5
2017-Sep-08 22:12N 48°23' W 124°25'518.8
2017-Sep-08 21:57N 48°25' W 124°31'1118.8
2017-Sep-08 21:21N 48°29' W 124°47'719.0
2017-Sep-08 21:01N 48°29' W 124°57'918.8
2017-Sep-08 20:30N 48°29' W 125°11'1019.5
2017-Sep-08 20:01N 48°34' W 125°23'1121.6
2017-Sep-08 19:31N 48°41' W 125°37'1122.0
2017-Sep-08 19:01N 48°47' W 125°50'1122.2
2017-Sep-08 18:31N 48°53' W 126°04'1122.2
2017-Sep-08 18:01N 48°59' W 126°18'1121.8
2017-Sep-08 17:31N 49°06' W 126°32'1122.1
2017-Sep-08 17:00N 49°12' W 126°46'1122.3
2017-Sep-08 16:30N 49°20' W 126°58'1122.8
2017-Sep-08 16:00N 49°28' W 127°10'1222.9
2017-Sep-08 15:30N 49°37' W 127°22'2416.0
2017-Sep-08 14:00N 49°54' W 127°48'5727.8 330 / 251015.810.8 13.512.213.0
2017-Sep-08 11:58N 50°34' W 128°50'1222.7
2017-Sep-08 11:26N 50°43' W 129°04'1022.6
2017-Sep-08 11:00N 50°50' W 129°13'1122.7
2017-Sep-08 10:30N 51°01' W 129°20'1122.2
2017-Sep-08 10:00N 51°11' W 129°26'1122.1
2017-Sep-08 09:31N 51°21' W 129°33'1223.3
2017-Sep-08 09:00N 51°32' W 129°39'4821.7
2017-Sep-08 06:47N 52°17' W 130°07'621.6
2017-Sep-08 06:30N 52°23' W 130°10'1121.6
2017-Sep-08 06:00N 52°33' W 130°17'1121.9
2017-Sep-08 05:30N 52°43' W 130°23'4919.5
2017-Sep-08 03:00N 53°30' W 130°48'   040 / 21016.110.8 14.011.214.0

Dump ship's entire track history